createdAt,value
2019-05-22T00:00:41.588Z,95.04
2019-05-22T00:03:15.673Z,95.21
2019-05-22T00:05:47.995Z,94.97
2019-05-22T00:08:19.864Z,94.91
2019-05-22T00:10:51.755Z,95.06
2019-05-22T00:13:31.050Z,94.93
2019-05-22T00:16:03.934Z,94.53
2019-05-22T00:18:34.930Z,95.06
2019-05-22T00:21:05.296Z,95.04
2019-05-22T00:23:37.033Z,94.96
2019-05-22T00:26:07.643Z,95.27
2019-05-22T00:28:38.899Z,95.35
2019-05-22T00:31:09.193Z,95.36
2019-05-22T00:33:39.871Z,95.25
2019-05-22T00:36:13.351Z,95.29
2019-05-22T00:38:44.428Z,95.09
2019-05-22T00:41:18.436Z,95.16
2019-05-22T00:43:49.432Z,95.09
2019-05-22T00:46:21.294Z,94.93
2019-05-22T00:48:52.246Z,95.27
2019-05-22T00:51:47.145Z,95.32
2019-05-22T00:54:36.917Z,95.15
2019-05-22T00:57:21.987Z,95.04
2019-05-22T00:59:54.915Z,94.76
2019-05-22T01:02:28.024Z,94.85
2019-05-22T01:04:59.786Z,94.65
2019-05-22T01:07:37.172Z,94.75
2019-05-22T01:10:11.614Z,94.90
2019-05-22T01:12:44.097Z,95.08
2019-05-22T01:15:20.775Z,95.04
2019-05-22T01:17:51.028Z,94.94
2019-05-22T01:20:24.493Z,95.08
2019-05-22T01:22:57.632Z,95.12
2019-05-22T01:25:29.015Z,94.89
2019-05-22T01:28:00.294Z,95.00
2019-05-22T01:30:40.035Z,95.04
2019-05-22T01:33:14.157Z,95.02
2019-05-22T01:35:50.609Z,95.31
2019-05-22T01:38:23.085Z,95.20
2019-05-22T01:40:58.835Z,95.13
2019-05-22T01:43:29.872Z,95.13
2019-05-22T01:46:03.280Z,95.00
2019-05-22T01:48:37.349Z,94.84
2019-05-22T01:51:07.291Z,95.17
2019-05-22T01:53:40.928Z,94.90
2019-05-22T01:56:12.776Z,95.18
2019-05-22T01:58:45.843Z,95.61
2019-05-22T02:01:20.795Z,95.52
2019-05-22T02:03:54.379Z,95.35
2019-05-22T02:06:25.057Z,95.40
2019-05-22T02:09:02.636Z,95.58
2019-05-22T02:11:33.449Z,95.36
2019-05-22T02:14:09.933Z,95.32
2019-05-22T02:16:56.302Z,95.46
2019-05-22T02:19:18.278Z,95.61
2019-05-22T02:21:49.325Z,95.66
2019-05-22T02:24:20.215Z,95.39
2019-05-22T02:26:51.328Z,95.53
2019-05-22T02:29:22.161Z,95.46
2019-05-22T02:31:55.567Z,95.63
2019-05-22T02:34:26.245Z,95.36
2019-05-22T02:36:57.734Z,95.58
2019-05-22T02:39:30.543Z,95.56
2019-05-22T02:42:06.501Z,95.68
2019-05-22T02:44:38.196Z,95.56
2019-05-22T02:47:18.880Z,95.33
2019-05-22T02:49:42.255Z,95.65
2019-05-22T02:52:12.834Z,95.53
2019-05-22T02:54:42.916Z,95.24
2019-05-22T02:57:13.313Z,95.43
2019-05-22T02:59:43.819Z,95.32
2019-05-22T03:02:15.922Z,95.04
2019-05-22T03:05:05.642Z,95.12
2019-05-22T03:07:36.110Z,95.46
2019-05-22T03:10:08.075Z,94.95
2019-05-22T03:12:39.007Z,94.97
2019-05-22T03:15:12.963Z,95.07
2019-05-22T03:17:47.455Z,95.34
2019-05-22T03:20:24.223Z,95.49
2019-05-22T03:23:30.808Z,95.44
2019-05-22T03:26:01.935Z,95.23
2019-05-22T03:28:32.236Z,95.18
2019-05-22T03:31:03.493Z,95.32
2019-05-22T03:33:34.563Z,95.37
2019-05-22T03:36:11.218Z,95.46
2019-05-22T03:38:41.790Z,95.64
2019-05-22T03:41:13.652Z,95.49
2019-05-22T03:43:46.238Z,95.53
2019-05-22T03:46:34.262Z,95.45
2019-05-22T03:49:05.704Z,95.44
2019-05-22T03:51:36.251Z,95.16
2019-05-22T03:54:06.577Z,95.35
2019-05-22T03:56:43.192Z,95.33
2019-05-22T03:59:13.689Z,95.37
2019-05-22T04:01:45.058Z,95.46
2019-05-22T04:04:33.960Z,95.44
2019-05-22T04:07:08.497Z,95.51
2019-05-22T04:09:40.130Z,95.25
2019-05-22T04:12:11.566Z,95.07
2019-05-22T04:14:42.470Z,95.18
2019-05-22T04:17:15.071Z,95.18
2019-05-22T04:19:51.035Z,94.95
2019-05-22T04:22:19.055Z,94.96
2019-05-22T04:24:50.045Z,94.85
2019-05-22T04:27:20.367Z,94.66
2019-05-22T04:29:51.219Z,94.89
2019-05-22T04:32:31.607Z,94.91
2019-05-22T04:35:02.419Z,94.98
2019-05-22T04:37:33.134Z,94.83
2019-05-22T04:40:44.280Z,94.79
2019-05-22T04:43:20.097Z,94.85
2019-05-22T04:45:48.401Z,95.01
2019-05-22T04:48:19.588Z,95.03
2019-05-22T04:50:51.979Z,94.71
2019-05-22T04:53:22.046Z,94.87
2019-05-22T04:55:53.060Z,94.70
2019-05-22T04:58:26.494Z,94.62
2019-05-22T05:00:56.891Z,94.25
2019-05-22T05:03:29.309Z,94.57
2019-05-22T05:06:00.177Z,94.30
2019-05-22T05:08:30.647Z,94.47
2019-05-22T05:11:03.005Z,94.65
2019-05-22T05:13:33.339Z,94.71
2019-05-22T05:16:04.163Z,94.70
2019-05-22T05:18:35.189Z,94.57
2019-05-22T05:21:06.520Z,94.57
2019-05-22T05:23:36.589Z,94.47
2019-05-22T05:26:07.806Z,94.37
2019-05-22T05:28:38.627Z,94.12
2019-05-22T05:31:08.787Z,93.78
2019-05-22T05:34:01.694Z,93.95
2019-05-22T05:36:32.384Z,94.17
2019-05-22T05:39:07.097Z,94.30
2019-05-22T05:41:37.227Z,94.03
2019-05-22T05:44:07.793Z,93.58
2019-05-22T05:46:37.887Z,93.58
2019-05-22T05:49:07.800Z,93.48
2019-05-22T05:51:43.087Z,93.24
2019-05-22T05:54:15.271Z,93.31
2019-05-22T05:56:48.376Z,93.42
2019-05-22T05:59:22.583Z,93.45
2019-05-22T06:02:01.125Z,93.79
2019-05-22T06:04:36.355Z,93.80
2019-05-22T06:07:27.865Z,94.07
2019-05-22T06:10:34.366Z,94.09
2019-05-22T06:13:05.237Z,93.92
2019-05-22T06:15:47.216Z,93.53
2019-05-22T06:18:35.448Z,93.21
2019-05-22T06:21:09.913Z,93.42
2019-05-22T06:24:23.394Z,93.39
2019-05-22T06:27:12.613Z,93.07
2019-05-22T06:29:55.661Z,92.74
2019-05-22T06:32:54.777Z,92.71
2019-05-22T06:35:26.705Z,92.46
2019-05-22T06:38:24.162Z,92.75
2019-05-22T06:40:54.497Z,92.94
2019-05-22T06:44:10.186Z,93.29
2019-05-22T06:46:47.564Z,93.46
2019-05-22T06:49:37.183Z,93.23
2019-05-22T06:52:08.188Z,93.26
2019-05-22T06:54:38.850Z,93.36
2019-05-22T06:57:26.463Z,93.19
2019-05-22T07:00:12.293Z,92.93
2019-05-22T07:02:31.722Z,92.41
2019-05-22T07:05:02.008Z,92.35
2019-05-22T07:07:32.135Z,92.11
2019-05-22T07:10:02.467Z,91.54
2019-05-22T07:12:35.327Z,91.81
2019-05-22T07:15:31.283Z,91.30
2019-05-22T07:18:03.270Z,91.59
2019-05-22T07:20:35.741Z,91.59
2019-05-22T07:23:07.957Z,90.94
2019-05-22T07:25:40.205Z,90.60
2019-05-22T07:28:11.482Z,90.87
2019-05-22T07:30:41.437Z,90.53
2019-05-22T07:33:12.325Z,90.55
2019-05-22T07:36:04.485Z,90.36
2019-05-22T07:38:16.879Z,89.87
2019-05-22T07:40:50.643Z,90.39
2019-05-22T07:43:20.910Z,90.73
2019-05-22T07:45:52.740Z,90.45
2019-05-22T07:48:25.785Z,90.89
2019-05-22T07:50:57.403Z,91.06
2019-05-22T07:53:28.643Z,90.65
2019-05-22T07:56:02.621Z,90.75
2019-05-22T07:58:33.120Z,90.77
2019-05-22T08:01:03.471Z,90.04
2019-05-22T08:03:34.208Z,90.39
2019-05-22T08:06:06.298Z,89.83
2019-05-22T08:08:37.042Z,89.15
2019-05-22T08:11:07.505Z,89.42
2019-05-22T08:13:38.567Z,89.44
2019-05-22T08:16:09.722Z,89.29
2019-05-22T08:18:40.616Z,88.87
2019-05-22T08:21:11.710Z,88.20
2019-05-22T08:23:42.189Z,86.47
2019-05-22T08:26:17.311Z,86.49
2019-05-22T08:28:47.304Z,87.25
2019-05-22T08:31:20.055Z,87.92
2019-05-22T08:33:50.164Z,87.87
2019-05-22T08:36:20.162Z,86.79
2019-05-22T08:38:50.852Z,85.75
2019-05-22T08:41:27.274Z,84.01
2019-05-22T08:44:15.436Z,83.78
2019-05-22T08:46:29.962Z,81.88
2019-05-22T08:49:00.122Z,82.27
2019-05-22T08:51:30.468Z,81.71
2019-05-22T08:54:00.780Z,81.27
2019-05-22T08:56:35.918Z,81.76
2019-05-22T08:59:18.818Z,81.47
2019-05-22T09:01:40.149Z,82.20
2019-05-22T09:04:10.519Z,83.63
2019-05-22T09:06:40.668Z,84.80
2019-05-22T09:09:11.689Z,85.00
2019-05-22T09:11:41.654Z,84.56
2019-05-22T09:14:11.810Z,84.54
2019-05-22T09:16:41.741Z,84.76
2019-05-22T09:19:12.160Z,82.55
2019-05-22T09:21:42.874Z,82.56
2019-05-22T09:24:17.007Z,82.19
2019-05-22T09:26:47.259Z,83.76
2019-05-22T09:29:17.532Z,83.90
2019-05-22T09:31:47.557Z,84.05
2019-05-22T09:34:17.696Z,81.82
2019-05-22T09:36:48.685Z,82.89
2019-05-22T09:39:18.757Z,82.59
2019-05-22T09:41:48.661Z,82.35
2019-05-22T09:44:18.767Z,82.14
2019-05-22T09:46:49.322Z,83.17
2019-05-22T09:49:23.610Z,83.19
2019-05-22T09:51:51.458Z,83.86
2019-05-22T09:54:22.066Z,84.69
2019-05-22T09:56:52.050Z,85.23
2019-05-22T09:59:22.132Z,84.78
2019-05-22T10:01:52.150Z,83.87
2019-05-22T10:04:22.336Z,83.27
2019-05-22T10:06:52.428Z,81.79
2019-05-22T10:09:22.731Z,80.41
2019-05-22T10:11:53.254Z,79.50
2019-05-22T10:14:23.807Z,80.07
2019-05-22T10:16:54.280Z,77.37
2019-05-22T10:19:24.877Z,75.77
2019-05-22T10:21:55.413Z,74.54
2019-05-22T10:24:25.478Z,71.59
2019-05-22T10:26:55.873Z,72.28
2019-05-22T10:29:26.678Z,75.28
2019-05-22T10:31:56.565Z,77.13
2019-05-22T10:34:26.979Z,78.74
2019-05-22T10:36:56.973Z,80.99
2019-05-22T10:39:28.063Z,81.89
2019-05-22T10:41:57.934Z,82.26
2019-05-22T10:44:28.332Z,81.66
2019-05-22T10:46:58.319Z,79.66
2019-05-22T10:49:28.305Z,80.43
2019-05-22T10:51:58.277Z,79.75
2019-05-22T10:54:28.470Z,77.09
2019-05-22T10:56:58.572Z,75.98
2019-05-22T10:59:28.475Z,75.07
2019-05-22T11:01:58.562Z,73.33
2019-05-22T11:04:29.578Z,75.11
2019-05-22T11:06:59.678Z,75.94
2019-05-22T11:09:30.849Z,75.84
2019-05-22T11:12:01.138Z,77.07
2019-05-22T11:14:31.442Z,77.88
2019-05-22T11:17:01.695Z,79.52
2019-05-22T11:19:32.318Z,79.28
2019-05-22T11:22:04.058Z,80.31
2019-05-22T11:24:36.304Z,81.21
2019-05-22T11:27:06.530Z,81.50
2019-05-22T11:29:36.582Z,80.80
2019-05-22T11:32:07.072Z,78.79
2019-05-22T11:34:37.387Z,77.54
2019-05-22T11:37:07.963Z,75.73
2019-05-22T11:39:40.338Z,73.71
2019-05-22T11:42:11.163Z,72.58
2019-05-22T11:44:41.752Z,72.60
2019-05-22T11:47:13.932Z,70.59
2019-05-22T11:49:43.846Z,70.53
2019-05-22T11:52:14.237Z,72.23
2019-05-22T11:54:45.021Z,72.50
2019-05-22T11:57:16.673Z,71.99
2019-05-22T11:59:47.299Z,72.83
2019-05-22T12:02:17.345Z,74.38
2019-05-22T12:04:48.896Z,76.02
2019-05-22T12:07:19.570Z,78.22
2019-05-22T12:09:49.940Z,79.76
2019-05-22T12:12:20.309Z,79.71
2019-05-22T12:14:50.243Z,81.86
2019-05-22T12:17:36.742Z,81.09
2019-05-22T12:19:53.662Z,81.07
2019-05-22T12:22:23.709Z,81.20
2019-05-22T12:24:53.809Z,78.85
2019-05-22T12:27:25.506Z,76.78
2019-05-22T12:29:55.614Z,75.15
2019-05-22T12:32:27.641Z,75.34
2019-05-22T12:34:57.563Z,73.49
2019-05-22T12:37:28.541Z,72.29
2019-05-22T12:40:00.295Z,71.86
2019-05-22T12:42:30.994Z,71.34
2019-05-22T12:45:01.026Z,69.42
2019-05-22T12:47:31.206Z,69.60
2019-05-22T12:50:02.698Z,68.58
2019-05-22T12:52:33.243Z,68.73
2019-05-22T12:55:04.443Z,68.59
2019-05-22T12:57:35.110Z,69.34
2019-05-22T13:00:05.661Z,71.09
2019-05-22T13:02:36.932Z,71.80
2019-05-22T13:05:07.999Z,69.43
2019-05-22T13:07:38.399Z,68.78
2019-05-22T13:10:09.377Z,67.75
2019-05-22T13:12:39.669Z,68.58
2019-05-22T13:15:10.961Z,66.79
2019-05-22T13:17:41.451Z,67.74
2019-05-22T13:20:13.907Z,68.31
2019-05-22T13:22:47.575Z,68.33
2019-05-22T13:25:19.815Z,67.72
2019-05-22T13:27:52.067Z,67.10
2019-05-22T13:30:28.426Z,67.94
2019-05-22T13:32:58.069Z,66.14
2019-05-22T13:35:29.170Z,67.84
2019-05-22T13:38:00.140Z,68.92
2019-05-22T13:40:32.697Z,68.17
2019-05-22T13:43:03.858Z,69.73
2019-05-22T13:45:35.002Z,69.59
2019-05-22T13:48:05.179Z,69.71
2019-05-22T13:50:35.965Z,67.26
2019-05-22T13:53:06.459Z,68.61
2019-05-22T13:55:36.863Z,67.81
2019-05-22T13:58:07.909Z,68.74
2019-05-22T14:00:38.977Z,68.72
2019-05-22T14:03:09.893Z,70.42
2019-05-22T14:05:42.035Z,71.03
2019-05-22T14:08:12.184Z,72.29
2019-05-22T14:10:43.974Z,71.86
2019-05-22T14:13:14.361Z,72.16
2019-05-22T14:15:54.690Z,70.03
2019-05-22T14:18:16.315Z,69.54
2019-05-22T14:20:46.809Z,69.02
2019-05-22T14:23:18.074Z,68.55
2019-05-22T14:25:48.654Z,68.35
2019-05-22T14:28:19.272Z,67.58
2019-05-22T14:30:49.879Z,68.87
2019-05-22T14:33:20.141Z,69.62
2019-05-22T14:35:52.553Z,69.98
2019-05-22T14:38:22.659Z,70.05
2019-05-22T14:40:52.684Z,69.02
2019-05-22T14:43:22.590Z,68.43
2019-05-22T14:45:53.160Z,67.79
2019-05-22T14:48:23.181Z,67.22
2019-05-22T14:50:53.160Z,68.59
2019-05-22T14:53:23.266Z,67.38
2019-05-22T14:55:53.926Z,67.55
2019-05-22T14:58:24.390Z,66.20
2019-05-22T15:00:54.700Z,66.17
2019-05-22T15:03:25.217Z,67.87
2019-05-22T15:05:55.280Z,68.09
2019-05-22T15:08:25.421Z,68.28
2019-05-22T15:10:55.909Z,67.34
2019-05-22T15:13:26.870Z,67.33
2019-05-22T15:15:56.902Z,63.67
2019-05-22T15:18:27.042Z,64.42
2019-05-22T15:21:02.480Z,64.66
2019-05-22T15:23:33.463Z,66.26
2019-05-22T15:26:04.085Z,65.87
2019-05-22T15:28:34.541Z,67.21
2019-05-22T15:31:06.508Z,67.60
2019-05-22T15:33:36.944Z,68.46
2019-05-22T15:36:10.516Z,67.95
2019-05-22T15:38:42.188Z,69.22
2019-05-22T15:41:13.218Z,69.02
2019-05-22T15:43:51.740Z,68.99
2019-05-22T15:46:19.006Z,69.23
2019-05-22T15:48:50.699Z,69.02
2019-05-22T15:51:26.014Z,69.49
2019-05-22T15:53:59.837Z,69.55
2019-05-22T15:56:31.783Z,68.95
2019-05-22T15:59:05.039Z,68.63
2019-05-22T16:01:36.949Z,69.70
2019-05-22T16:04:10.019Z,68.63
2019-05-22T16:06:40.381Z,70.20
2019-05-22T16:09:15.201Z,70.25
2019-05-22T16:11:47.104Z,70.70
2019-05-22T16:14:17.372Z,71.12
2019-05-22T16:16:51.171Z,71.21
2019-05-22T16:19:24.616Z,70.96
2019-05-22T16:21:56.615Z,70.99
2019-05-22T16:24:27.360Z,72.25
2019-05-22T16:26:57.482Z,71.74
2019-05-22T16:29:28.501Z,72.65
2019-05-22T16:32:00.364Z,73.06
2019-05-22T16:34:30.495Z,73.52
2019-05-22T16:37:03.902Z,73.23
2019-05-22T16:39:34.133Z,73.28
2019-05-22T16:42:04.799Z,73.89
2019-05-22T16:44:34.880Z,73.10
2019-05-22T16:47:06.768Z,73.59
2019-05-22T16:49:38.125Z,72.62
2019-05-22T16:52:11.294Z,72.38
2019-05-22T16:54:42.844Z,72.75
2019-05-22T16:57:13.305Z,72.36
2019-05-22T16:59:45.078Z,72.03
2019-05-22T17:02:17.849Z,72.35
2019-05-22T17:04:48.666Z,71.34
2019-05-22T17:07:19.306Z,70.07
2019-05-22T17:09:51.794Z,69.26
2019-05-22T17:12:23.324Z,68.98
2019-05-22T17:14:54.408Z,68.51
2019-05-22T17:17:25.081Z,67.75
2019-05-22T17:19:55.303Z,67.87
2019-05-22T17:22:26.103Z,67.73
2019-05-22T17:24:56.923Z,68.05
2019-05-22T17:27:26.977Z,68.75
2019-05-22T17:29:57.935Z,68.50
2019-05-22T17:32:28.711Z,68.70
2019-05-22T17:34:59.538Z,69.40
2019-05-22T17:37:30.634Z,70.07
2019-05-22T17:40:02.105Z,70.99
2019-05-22T17:42:33.017Z,71.57
2019-05-22T17:45:03.439Z,71.62
2019-05-22T17:47:33.849Z,73.00
2019-05-22T17:50:04.414Z,73.10
2019-05-22T17:52:34.729Z,74.11
2019-05-22T17:55:06.186Z,74.91
2019-05-22T17:57:38.043Z,75.74
2019-05-22T18:00:16.879Z,75.44
2019-05-22T18:02:46.898Z,75.15
2019-05-22T18:05:18.810Z,75.36
2019-05-22T18:07:49.189Z,75.26
2019-05-22T18:10:19.462Z,75.55
2019-05-22T18:12:49.549Z,75.10
2019-05-22T18:15:20.409Z,74.67
2019-05-22T18:17:50.967Z,74.76
2019-05-22T18:20:21.837Z,74.94
2019-05-22T18:22:52.013Z,74.48
2019-05-22T18:25:22.380Z,74.39
2019-05-22T18:27:53.455Z,74.37
2019-05-22T18:30:24.316Z,74.41
2019-05-22T18:32:54.410Z,74.71
2019-05-22T18:35:24.382Z,74.57
2019-05-22T18:37:54.493Z,74.45
2019-05-22T18:40:24.473Z,74.39
2019-05-22T18:42:54.796Z,74.32
2019-05-22T18:45:25.311Z,74.43
2019-05-22T18:47:55.952Z,74.56
2019-05-22T18:50:26.577Z,74.34
2019-05-22T18:52:56.790Z,73.90
2019-05-22T18:55:26.878Z,73.59
2019-05-22T18:57:56.802Z,73.79
2019-05-22T19:00:29.094Z,74.27
2019-05-22T19:02:59.188Z,74.69
2019-05-22T19:05:31.673Z,74.62
2019-05-22T19:08:01.687Z,74.32
2019-05-22T19:10:32.783Z,74.37
2019-05-22T19:13:03.153Z,74.81
2019-05-22T19:15:33.715Z,75.15
2019-05-22T19:18:03.709Z,74.71
2019-05-22T19:20:34.208Z,75.36
2019-05-22T19:23:04.398Z,76.06
2019-05-22T19:25:34.510Z,76.39
2019-05-22T19:28:04.861Z,76.39
2019-05-22T19:30:36.334Z,75.73
2019-05-22T19:33:06.658Z,75.53
2019-05-22T19:35:36.725Z,75.56
2019-05-22T19:38:06.903Z,76.29
2019-05-22T19:40:37.568Z,76.82
2019-05-22T19:43:07.727Z,77.29
2019-05-22T19:45:38.009Z,77.77
2019-05-22T19:48:08.115Z,78.01
2019-05-22T19:50:38.903Z,78.32
2019-05-22T19:53:18.812Z,78.93
2019-05-22T19:55:42.004Z,78.81
2019-05-22T19:58:12.967Z,79.36
2019-05-22T20:00:42.996Z,80.03
2019-05-22T20:03:15.060Z,80.29
2019-05-22T20:05:45.512Z,80.63
2019-05-22T20:08:15.425Z,81.36
2019-05-22T20:10:45.613Z,82.13
2019-05-22T20:13:17.207Z,82.57
2019-05-22T20:15:47.777Z,83.20
2019-05-22T20:18:18.205Z,83.02
2019-05-22T20:20:48.290Z,83.21
2019-05-22T20:23:34.286Z,82.94
2019-05-22T20:25:52.557Z,82.84
2019-05-22T20:28:22.790Z,82.60
2019-05-22T20:30:52.897Z,82.84
2019-05-22T20:33:26.737Z,82.82
2019-05-22T20:35:55.097Z,82.65
2019-05-22T20:38:25.510Z,82.70
2019-05-22T20:40:56.586Z,82.70
2019-05-22T20:43:27.657Z,82.63
2019-05-22T20:45:58.140Z,83.10
2019-05-22T20:48:30.682Z,83.87
2019-05-22T20:51:01.107Z,83.70
2019-05-22T20:53:33.381Z,83.89
2019-05-22T20:56:03.521Z,84.38
2019-05-22T20:58:33.839Z,84.65
2019-05-22T21:01:05.832Z,84.55
2019-05-22T21:03:36.805Z,84.88
2019-05-22T21:06:10.354Z,85.20
2019-05-22T21:08:42.112Z,85.06
2019-05-22T21:11:15.091Z,84.76
2019-05-22T21:13:46.212Z,84.63
2019-05-22T21:16:17.584Z,84.75
2019-05-22T21:18:51.721Z,84.89
2019-05-22T21:21:23.708Z,84.93
2019-05-22T21:24:07.677Z,85.04
2019-05-22T21:26:25.726Z,84.81
2019-05-22T21:28:55.968Z,85.42
2019-05-22T21:31:26.122Z,85.51
2019-05-22T21:33:56.820Z,85.45
2019-05-22T21:36:28.122Z,85.36
2019-05-22T21:38:58.434Z,85.62
2019-05-22T21:41:28.667Z,85.47
2019-05-22T21:43:58.757Z,85.69
2019-05-22T21:46:28.692Z,86.06
2019-05-22T21:48:59.371Z,86.23
2019-05-22T21:51:29.566Z,86.46
2019-05-22T21:53:59.753Z,86.42
2019-05-22T21:56:30.650Z,86.68
2019-05-22T21:59:00.829Z,87.07
2019-05-22T22:01:50.203Z,86.93
2019-05-22T22:04:22.572Z,86.80
2019-05-22T22:06:55.202Z,86.48
2019-05-22T22:09:26.270Z,86.60
2019-05-22T22:11:57.100Z,86.11
2019-05-22T22:14:27.651Z,84.67
2019-05-22T22:16:57.845Z,84.16
2019-05-22T22:19:30.410Z,84.56
2019-05-22T22:22:00.861Z,85.12
2019-05-22T22:24:31.153Z,85.73
2019-05-22T22:27:01.663Z,85.98
2019-05-22T22:29:31.883Z,86.00
2019-05-22T22:32:02.449Z,86.13
2019-05-22T22:34:47.354Z,85.69
2019-05-22T22:37:19.055Z,84.98
2019-05-22T22:39:55.187Z,84.43
2019-05-22T22:42:29.225Z,84.29
2019-05-22T22:44:59.582Z,84.22
2019-05-22T22:47:37.318Z,84.73
2019-05-22T22:50:09.811Z,84.61
2019-05-22T22:52:40.671Z,85.11
2019-05-22T22:55:14.258Z,85.33
2019-05-22T22:57:46.721Z,84.06
2019-05-22T23:00:22.993Z,84.10
2019-05-22T23:02:53.629Z,84.04
2019-05-22T23:05:24.454Z,84.64
2019-05-22T23:07:55.652Z,83.83
2019-05-22T23:10:26.126Z,83.36
2019-05-22T23:12:56.909Z,83.01
2019-05-22T23:15:28.374Z,81.48
2019-05-22T23:17:58.473Z,81.61
2019-05-22T23:20:27.422Z,82.35
2019-05-22T23:22:55.822Z,83.28
2019-05-22T23:25:25.845Z,83.95
2019-05-22T23:27:55.765Z,84.13
2019-05-22T23:30:25.990Z,84.16
2019-05-22T23:32:57.391Z,84.11
2019-05-22T23:35:30.347Z,84.49
2019-05-22T23:38:02.086Z,84.74
2019-05-22T23:40:36.304Z,84.68
2019-05-22T23:43:07.030Z,84.79
2019-05-22T23:45:37.598Z,85.39
2019-05-22T23:48:16.316Z,85.77
2019-05-22T23:50:48.259Z,86.00
2019-05-22T23:53:18.509Z,86.19
2019-05-22T23:55:48.590Z,86.03
2019-05-22T23:58:20.021Z,85.14
